KIZG

Eastern Slopes Regional Airport

Fryeburg, Maine, USA
METAR KIZG 191654Z AUTO 14004KT 10SM FEW070 BKN110 M06/M14 A3029 RMK AO2 SLP265 T10611139
Observed Flight Rules
Jan-19 @ 16:54 UTC (42 minutes ago) Visual Flight Rules
Wind Visibility Clouds
140° at 4 knots 10 miles
  • Few at 7,000' AGL
  • Broken at 11,000' AGL
Temperatures Readings
Current -6°C / 21°F
Dewpoint -14°C / 7°F
Humidity 54%
Altimeter 30.29" Hg
Pressure 1026.5 hPa
Elevation 135
METAR KIZG 191654Z AUTO 14004KT 10SM FEW070 BKN110 M06/M14 A3029 RMK AO2 SLP265 T10611139
Observed Flight Rules
Jan-19 @ 16:54 UTC
(42 minutes ago)
VFR
Wind Visibility
140° at 4 knots 10 miles
Clouds
  • Few at 7,000' AGL
  • Broken at 11,000' AGL
Temperature Dewpoint
-6°C / 21°F -14°C / 7°F
Humidity Altimeter Pressure
54% 30.29" Hg 1026.5 hPa